Terminal Aerodrome Forecast
Issued by NWS

Home | Current Version | Previous Version | Text Only | Print | Product List | Glossary On
Versions: 1 2 3 4 5 6 7 8 9 10 11 12
000
FTUS44 KLZK 211100
TAFLLQ
TAF
KLLQ 211120Z 2112/2212 17003KT P6SM VCSH SCT040 BKN100
     FM212000 22009KT P6SM -TSRA BKN040CB OVC100
     FM220200 VRB04KT P6SM VCSH BKN040 OVC100
      TEMPO 2202/2206 4SM TSRA BR BKN025CB
     FM220800 VRB03KT 5SM BR VCSH BKN025 OVC040=

USA.gov is the U.S. government's official web portal to all federal, state and local government web resources and services.